sensor_id;sensor_type;location;lat;lon;timestamp;temperature;humidity
8664;DHT22;4369;47.842;13.096;2024-03-23T00:54:31;10.50;1.00
8664;DHT22;4369;47.842;13.096;2024-03-23T00:56:57;10.50;1.00
8664;DHT22;4369;47.842;13.096;2024-03-23T00:59:24;10.50;69.90
8664;DHT22;4369;47.842;13.096;2024-03-23T01:01:53;10.50;99.90
8664;DHT22;4369;47.842;13.096;2024-03-23T01:04:20;10.50;12.90
8664;DHT22;4369;47.842;13.096;2024-03-23T01:06:46;10.50;99.90
8664;DHT22;4369;47.842;13.096;2024-03-23T01:09:13;10.50;99.90
8664;DHT22;4369;47.842;13.096;2024-03-23T01:11:41;10.50;99.90
8664;DHT22;4369;47.842;13.096;2024-03-23T01:14:07;10.50;99.90
8664;DHT22;4369;47.842;13.096;2024-03-23T01:16:33;10.40;99.90
8664;DHT22;4369;47.842;13.096;2024-03-23T01:19:00;10.40;99.90
8664;DHT22;4369;47.842;13.096;2024-03-23T01:21:27;10.40;17.70
8664;DHT22;4369;47.842;13.096;2024-03-23T01:23:53;10.30;1.00
8664;DHT22;4369;47.842;13.096;2024-03-23T01:26:20;10.20;99.90
8664;DHT22;4369;47.842;13.096;2024-03-23T01:28:49;10.20;99.90
8664;DHT22;4369;47.842;13.096;2024-03-23T01:31:15;10.20;1.00
8664;DHT22;4369;47.842;13.096;2024-03-23T01:33:42;10.20;99.90
8664;DHT22;4369;47.842;13.096;2024-03-23T01:36:08;10.10;1.00
8664;DHT22;4369;47.842;13.096;2024-03-23T01:38:35;10.10;99.90
8664;DHT22;4369;47.842;13.096;2024-03-23T01:41:02;10.00;99.90
8664;DHT22;4369;47.842;13.096;2024-03-23T01:43:29;9.90;99.90
8664;DHT22;4369;47.842;13.096;2024-03-23T01:45:56;9.90;99.90
8664;DHT22;4369;47.842;13.096;2024-03-23T01:48:23;9.80;99.90
8664;DHT22;4369;47.842;13.096;2024-03-23T01:50:51;9.70;99.90
8664;DHT22;4369;47.842;13.096;2024-03-23T01:53:18;9.60;99.90
8664;DHT22;4369;47.842;13.096;2024-03-23T01:55:47;9.60;99.90
8664;DHT22;4369;47.842;13.096;2024-03-23T01:58:14;9.60;1.00
8664;DHT22;4369;47.842;13.096;2024-03-23T02:00:40;9.50;1.00
8664;DHT22;4369;47.842;13.096;2024-03-23T02:06:03;9.50;1.00
8664;DHT22;4369;47.842;13.096;2024-03-23T02:08:33;9.40;1.00
8664;DHT22;4369;47.842;13.096;2024-03-23T02:10:59;9.40;99.90
8664;DHT22;4369;47.842;13.096;2024-03-23T02:13:26;9.30;99.90
8664;DHT22;4369;47.842;13.096;2024-03-23T02:15:52;9.20;99.90
8664;DHT22;4369;47.842;13.096;2024-03-23T02:18:19;9.20;99.90
8664;DHT22;4369;47.842;13.096;2024-03-23T02:20:45;9.10;99.90
8664;DHT22;4369;47.842;13.096;2024-03-23T02:23:16;9.00;99.90
8664;DHT22;4369;47.842;13.096;2024-03-23T02:25:44;9.00;1.00
8664;DHT22;4369;47.842;13.096;2024-03-23T02:28:11;9.00;1.00
8664;DHT22;4369;47.842;13.096;2024-03-23T02:30:37;9.00;1.00
8664;DHT22;4369;47.842;13.096;2024-03-23T02:33:04;8.90;99.90
8664;DHT22;4369;47.842;13.096;2024-03-23T02:35:30;8.90;1.00
8664;DHT22;4369;47.842;13.096;2024-03-23T02:37:57;8.80;1.00
8664;DHT22;4369;47.842;13.096;2024-03-23T02:40:25;8.80;1.00
8664;DHT22;4369;47.842;13.096;2024-03-23T02:42:52;8.80;1.00
8664;DHT22;4369;47.842;13.096;2024-03-23T02:45:18;8.70;1.00
8664;DHT22;4369;47.842;13.096;2024-03-23T02:47:45;8.60;1.00
8664;DHT22;4369;47.842;13.096;2024-03-23T02:50:11;8.60;1.00
8664;DHT22;4369;47.842;13.096;2024-03-23T02:52:40;8.60;1.00
8664;DHT22;4369;47.842;13.096;2024-03-23T02:55:06;8.50;1.00
8664;DHT22;4369;47.842;13.096;2024-03-23T02:57:35;8.40;1.00
8664;DHT22;4369;47.842;13.096;2024-03-23T03:00:01;8.30;1.00
8664;DHT22;4369;47.842;13.096;2024-03-23T03:02:28;8.30;1.00
8664;DHT22;4369;47.842;13.096;2024-03-23T03:04:54;8.30;1.00
8664;DHT22;4369;47.842;13.096;2024-03-23T03:07:21;8.20;1.00
8664;DHT22;4369;47.842;13.096;2024-03-23T03:09:47;8.30;1.00
8664;DHT22;4369;47.842;13.096;2024-03-23T03:12:14;8.20;1.00
8664;DHT22;4369;47.842;13.096;2024-03-23T03:14:41;8.20;1.00
8664;DHT22;4369;47.842;13.096;2024-03-23T03:17:08;8.20;1.00
8664;DHT22;4369;47.842;13.096;2024-03-23T03:19:34;8.20;1.00
8664;DHT22;4369;47.842;13.096;2024-03-23T03:22:01;8.10;1.00
8664;DHT22;4369;47.842;13.096;2024-03-23T03:24:27;8.10;1.00
8664;DHT22;4369;47.842;13.096;2024-03-23T03:26:54;8.10;1.00
8664;DHT22;4369;47.842;13.096;2024-03-23T03:29:20;8.10;1.00
8664;DHT22;4369;47.842;13.096;2024-03-23T03:31:48;8.00;1.00
8664;DHT22;4369;47.842;13.096;2024-03-23T03:34:15;8.00;1.00
8664;DHT22;4369;47.842;13.096;2024-03-23T03:36:42;8.00;1.00
8664;DHT22;4369;47.842;13.096;2024-03-23T03:39:08;8.00;1.00
8664;DHT22;4369;47.842;13.096;2024-03-23T03:41:35;8.00;1.00
8664;DHT22;4369;47.842;13.096;2024-03-23T03:44:01;8.00;1.00
8664;DHT22;4369;47.842;13.096;2024-03-23T03:46:28;8.00;1.00
8664;DHT22;4369;47.842;13.096;2024-03-23T03:48:55;8.00;1.00
8664;DHT22;4369;47.842;13.096;2024-03-23T03:51:22;7.90;1.00
8664;DHT22;4369;47.842;13.096;2024-03-23T03:53:48;7.90;1.00
8664;DHT22;4369;47.842;13.096;2024-03-23T03:56:15;7.90;1.00
8664;DHT22;4369;47.842;13.096;2024-03-23T03:58:41;7.90;1.00
8664;DHT22;4369;47.842;13.096;2024-03-23T04:01:08;7.80;1.00
8664;DHT22;4369;47.842;13.096;2024-03-23T04:03:34;7.80;1.00
8664;DHT22;4369;47.842;13.096;2024-03-23T04:06:03;7.80;1.00
8664;DHT22;4369;47.842;13.096;2024-03-23T04:08:29;7.70;1.00
8664;DHT22;4369;47.842;13.096;2024-03-23T04:10:56;7.70;9.50
8664;DHT22;4369;47.842;13.096;2024-03-23T04:13:22;7.70;14.90
8664;DHT22;4369;47.842;13.096;2024-03-23T04:15:49;7.70;15.70
8664;DHT22;4369;47.842;13.096;2024-03-23T04:18:19;7.70;15.70
8664;DHT22;4369;47.842;13.096;2024-03-23T04:20:47;7.60;18.30
8664;DHT22;4369;47.842;13.096;2024-03-23T04:23:14;7.60;20.50
8664;DHT22;4369;47.842;13.096;2024-03-23T04:25:41;7.50;30.60
8664;DHT22;4369;47.842;13.096;2024-03-23T04:28:07;7.50;42.40
8664;DHT22;4369;47.842;13.096;2024-03-23T04:30:34;7.50;52.70
8664;DHT22;4369;47.842;13.096;2024-03-23T04:33:00;7.50;57.80
8664;DHT22;4369;47.842;13.096;2024-03-23T04:35:27;7.50;63.70
8664;DHT22;4369;47.842;13.096;2024-03-23T04:37:53;7.40;66.50
8664;DHT22;4369;47.842;13.096;2024-03-23T04:40:22;7.40;67.90
8664;DHT22;4369;47.842;13.096;2024-03-23T04:42:49;7.40;74.10
8664;DHT22;4369;47.842;13.096;2024-03-23T04:45:16;7.40;85.30
8664;DHT22;4369;47.842;13.096;2024-03-23T04:47:43;7.40;89.80
8664;DHT22;4369;47.842;13.096;2024-03-23T04:50:09;7.40;93.80
8664;DHT22;4369;47.842;13.096;2024-03-23T04:52:37;7.40;96.60
8664;DHT22;4369;47.842;13.096;2024-03-23T04:55:04;7.30;96.20
8664;DHT22;4369;47.842;13.096;2024-03-23T04:57:33;7.30;98.90
8664;DHT22;4369;47.842;13.096;2024-03-23T04:59:59;7.30;99.50
8664;DHT22;4369;47.842;13.096;2024-03-23T05:02:26;7.30;99.90
8664;DHT22;4369;47.842;13.096;2024-03-23T05:04:53;7.30;99.90
8664;DHT22;4369;47.842;13.096;2024-03-23T05:07:19;7.30;99.90
8664;DHT22;4369;47.842;13.096;2024-03-23T05:09:46;7.20;99.90
8664;DHT22;4369;47.842;13.096;2024-03-23T05:12:14;7.20;99.90
8664;DHT22;4369;47.842;13.096;2024-03-23T05:14:42;7.30;99.90
8664;DHT22;4369;47.842;13.096;2024-03-23T05:17:08;7.20;99.90
8664;DHT22;4369;47.842;13.096;2024-03-23T05:19:36;7.20;99.90
8664;DHT22;4369;47.842;13.096;2024-03-23T05:22:01;7.20;99.90
8664;DHT22;4369;47.842;13.096;2024-03-23T05:24:28;7.20;99.90
8664;DHT22;4369;47.842;13.096;2024-03-23T05:26:54;7.10;99.90
8664;DHT22;4369;47.842;13.096;2024-03-23T05:29:24;7.10;99.90
8664;DHT22;4369;47.842;13.096;2024-03-23T05:31:51;7.20;99.90
8664;DHT22;4369;47.842;13.096;2024-03-23T05:34:21;7.20;99.90
8664;DHT22;4369;47.842;13.096;2024-03-23T05:36:46;7.20;99.90
8664;DHT22;4369;47.842;13.096;2024-03-23T05:39:15;7.20;99.90
8664;DHT22;4369;47.842;13.096;2024-03-23T05:41:42;7.20;99.90
8664;DHT22;4369;47.842;13.096;2024-03-23T05:44:09;7.20;99.90
8664;DHT22;4369;47.842;13.096;2024-03-23T05:46:36;7.20;99.90
8664;DHT22;4369;47.842;13.096;2024-03-23T05:49:05;7.20;99.90
8664;DHT22;4369;47.842;13.096;2024-03-23T05:51:31;7.10;99.90
8664;DHT22;4369;47.842;13.096;2024-03-23T05:53:58;7.20;99.90
8664;DHT22;4369;47.842;13.096;2024-03-23T05:56:23;7.20;99.90
8664;DHT22;4369;47.842;13.096;2024-03-23T05:58:51;7.20;99.90
8664;DHT22;4369;47.842;13.096;2024-03-23T06:01:17;7.10;99.90
8664;DHT22;4369;47.842;13.096;2024-03-23T06:03:44;7.20;99.90
8664;DHT22;4369;47.842;13.096;2024-03-23T06:06:12;7.30;99.90
8664;DHT22;4369;47.842;13.096;2024-03-23T06:08:39;7.30;99.90
8664;DHT22;4369;47.842;13.096;2024-03-23T06:11:05;7.40;99.90
8664;DHT22;4369;47.842;13.096;2024-03-23T06:13:32;7.40;99.90
8664;DHT22;4369;47.842;13.096;2024-03-23T06:15:59;7.40;99.90
8664;DHT22;4369;47.842;13.096;2024-03-23T06:18:26;7.60;99.90
8664;DHT22;4369;47.842;13.096;2024-03-23T06:20:52;7.70;99.90
8664;DHT22;4369;47.842;13.096;2024-03-23T06:23:20;7.90;99.90
8664;DHT22;4369;47.842;13.096;2024-03-23T06:25:46;8.00;99.90
8664;DHT22;4369;47.842;13.096;2024-03-23T06:28:14;8.20;99.90
8664;DHT22;4369;47.842;13.096;2024-03-23T06:30:41;8.30;99.90
8664;DHT22;4369;47.842;13.096;2024-03-23T06:33:07;8.50;99.90
8664;DHT22;4369;47.842;13.096;2024-03-23T06:35:34;8.60;99.90
8664;DHT22;4369;47.842;13.096;2024-03-23T06:38:00;8.60;99.90
8664;DHT22;4369;47.842;13.096;2024-03-23T06:40:28;8.70;99.90
8664;DHT22;4369;47.842;13.096;2024-03-23T06:42:54;8.90;99.90
8664;DHT22;4369;47.842;13.096;2024-03-23T06:45:21;9.00;99.90
8664;DHT22;4369;47.842;13.096;2024-03-23T06:47:49;9.10;99.90
8664;DHT22;4369;47.842;13.096;2024-03-23T06:50:17;9.30;99.90
8664;DHT22;4369;47.842;13.096;2024-03-23T06:52:43;9.40;99.90
8664;DHT22;4369;47.842;13.096;2024-03-23T06:55:10;9.50;99.90
8664;DHT22;4369;47.842;13.096;2024-03-23T06:57:37;9.60;99.90
8664;DHT22;4369;47.842;13.096;2024-03-23T07:00:05;9.80;99.90
8664;DHT22;4369;47.842;13.096;2024-03-23T07:02:35;9.90;99.90
8664;DHT22;4369;47.842;13.096;2024-03-23T07:05:02;10.10;99.90
8664;DHT22;4369;47.842;13.096;2024-03-23T07:07:28;10.20;99.90
8664;DHT22;4369;47.842;13.096;2024-03-23T07:09:55;10.30;99.90
8664;DHT22;4369;47.842;13.096;2024-03-23T07:12:21;10.40;99.90
8664;DHT22;4369;47.842;13.096;2024-03-23T07:14:50;10.50;97.60
8664;DHT22;4369;47.842;13.096;2024-03-23T07:17:16;10.60;57.20
8664;DHT22;4369;47.842;13.096;2024-03-23T07:19:44;10.60;14.10
8664;DHT22;4369;47.842;13.096;2024-03-23T07:22:10;10.70;19.70
8664;DHT22;4369;47.842;13.096;2024-03-23T07:24:36;10.80;1.00
8664;DHT22;4369;47.842;13.096;2024-03-23T07:27:05;10.90;1.00
8664;DHT22;4369;47.842;13.096;2024-03-23T07:29:35;11.00;1.00
8664;DHT22;4369;47.842;13.096;2024-03-23T07:32:03;11.10;1.00
8664;DHT22;4369;47.842;13.096;2024-03-23T07:34:30;11.20;1.00
8664;DHT22;4369;47.842;13.096;2024-03-23T07:36:57;11.30;99.90
8664;DHT22;4369;47.842;13.096;2024-03-23T07:39:24;11.50;99.90
8664;DHT22;4369;47.842;13.096;2024-03-23T07:41:50;11.60;99.90
8664;DHT22;4369;47.842;13.096;2024-03-23T07:44:17;11.70;94.90
8664;DHT22;4369;47.842;13.096;2024-03-23T07:46:43;11.80;49.60
8664;DHT22;4369;47.842;13.096;2024-03-23T07:49:11;11.90;2.40
8664;DHT22;4369;47.842;13.096;2024-03-23T07:51:37;11.90;1.00
8664;DHT22;4369;47.842;13.096;2024-03-23T07:54:05;12.10;1.00
8664;DHT22;4369;47.842;13.096;2024-03-23T07:56:31;12.10;1.00
8664;DHT22;4369;47.842;13.096;2024-03-23T07:58:58;12.20;1.00
8664;DHT22;4369;47.842;13.096;2024-03-23T08:01:24;12.40;1.00
8664;DHT22;4369;47.842;13.096;2024-03-23T08:03:51;12.50;1.00
8664;DHT22;4369;47.842;13.096;2024-03-23T08:06:19;12.50;1.00
8664;DHT22;4369;47.842;13.096;2024-03-23T08:08:49;12.60;1.00
8664;DHT22;4369;47.842;13.096;2024-03-23T08:11:16;12.70;1.00
8664;DHT22;4369;47.842;13.096;2024-03-23T08:16:09;13.00;1.00
8664;DHT22;4369;47.842;13.096;2024-03-23T08:18:36;13.10;1.00
8664;DHT22;4369;47.842;13.096;2024-03-23T08:21:03;13.20;1.00
8664;DHT22;4369;47.842;13.096;2024-03-23T08:23:34;13.40;1.00
8664;DHT22;4369;47.842;13.096;2024-03-23T08:26:10;13.50;1.00
8664;DHT22;4369;47.842;13.096;2024-03-23T08:28:38;13.60;1.00
8664;DHT22;4369;47.842;13.096;2024-03-23T08:31:06;13.70;1.00
8664;DHT22;4369;47.842;13.096;2024-03-23T08:33:33;13.90;1.00
8664;DHT22;4369;47.842;13.096;2024-03-23T08:36:00;14.00;1.00
8664;DHT22;4369;47.842;13.096;2024-03-23T08:38:28;14.10;1.00
8664;DHT22;4369;47.842;13.096;2024-03-23T08:41:00;14.20;1.00
8664;DHT22;4369;47.842;13.096;2024-03-23T08:43:32;14.30;1.00
8664;DHT22;4369;47.842;13.096;2024-03-23T08:46:03;14.40;1.00
8664;DHT22;4369;47.842;13.096;2024-03-23T08:48:31;14.60;1.00
8664;DHT22;4369;47.842;13.096;2024-03-23T08:51:01;14.70;1.00
8664;DHT22;4369;47.842;13.096;2024-03-23T08:53:29;14.90;1.00
8664;DHT22;4369;47.842;13.096;2024-03-23T08:55:55;15.10;1.00
8664;DHT22;4369;47.842;13.096;2024-03-23T08:58:25;15.20;1.00
8664;DHT22;4369;47.842;13.096;2024-03-23T09:00:51;15.40;1.00
8664;DHT22;4369;47.842;13.096;2024-03-23T09:03:21;15.60;1.00
8664;DHT22;4369;47.842;13.096;2024-03-23T09:05:47;15.70;1.00
8664;DHT22;4369;47.842;13.096;2024-03-23T09:08:14;15.80;1.00
8664;DHT22;4369;47.842;13.096;2024-03-23T09:10:40;16.00;1.00
8664;DHT22;4369;47.842;13.096;2024-03-23T09:13:08;16.30;1.00
8664;DHT22;4369;47.842;13.096;2024-03-23T09:15:37;16.60;1.00
8664;DHT22;4369;47.842;13.096;2024-03-23T09:18:04;16.90;1.00
8664;DHT22;4369;47.842;13.096;2024-03-23T09:20:33;17.20;1.00
8664;DHT22;4369;47.842;13.096;2024-03-23T09:23:00;17.40;1.00
8664;DHT22;4369;47.842;13.096;2024-03-23T09:25:26;17.30;1.00
8664;DHT22;4369;47.842;13.096;2024-03-23T09:27:53;17.30;1.00
8664;DHT22;4369;47.842;13.096;2024-03-23T09:30:19;17.30;1.00
8664;DHT22;4369;47.842;13.096;2024-03-23T09:32:48;17.30;1.00
8664;DHT22;4369;47.842;13.096;2024-03-23T09:35:14;17.50;1.00
8664;DHT22;4369;47.842;13.096;2024-03-23T09:37:41;17.40;1.00
8664;DHT22;4369;47.842;13.096;2024-03-23T09:40:09;17.40;1.00
8664;DHT22;4369;47.842;13.096;2024-03-23T09:42:37;17.30;1.00
8664;DHT22;4369;47.842;13.096;2024-03-23T09:45:05;17.20;1.00
8664;DHT22;4369;47.842;13.096;2024-03-23T09:47:33;16.90;1.00
8664;DHT22;4369;47.842;13.096;2024-03-23T09:50:01;17.10;1.00
8664;DHT22;4369;47.842;13.096;2024-03-23T09:52:31;16.20;1.00
8664;DHT22;4369;47.842;13.096;2024-03-23T09:54:58;15.40;1.00
8664;DHT22;4369;47.842;13.096;2024-03-23T09:57:25;15.20;1.00
8664;DHT22;4369;47.842;13.096;2024-03-23T09:59:51;15.10;1.00
8664;DHT22;4369;47.842;13.096;2024-03-23T10:02:20;14.90;1.00
8664;DHT22;4369;47.842;13.096;2024-03-23T10:04:46;14.80;1.00
8664;DHT22;4369;47.842;13.096;2024-03-23T10:07:18;14.80;1.00
8664;DHT22;4369;47.842;13.096;2024-03-23T10:09:44;14.60;1.00
8664;DHT22;4369;47.842;13.096;2024-03-23T10:12:15;14.40;1.00
8664;DHT22;4369;47.842;13.096;2024-03-23T10:14:41;14.40;1.00
8664;DHT22;4369;47.842;13.096;2024-03-23T10:17:13;14.30;1.00
8664;DHT22;4369;47.842;13.096;2024-03-23T10:19:40;14.20;1.00
8664;DHT22;4369;47.842;13.096;2024-03-23T10:22:08;14.20;1.00
8664;DHT22;4369;47.842;13.096;2024-03-23T10:24:36;14.10;1.00
8664;DHT22;4369;47.842;13.096;2024-03-23T10:27:03;13.90;1.00
8664;DHT22;4369;47.842;13.096;2024-03-23T10:29:29;13.80;1.00
8664;DHT22;4369;47.842;13.096;2024-03-23T10:32:08;13.60;1.00
8664;DHT22;4369;47.842;13.096;2024-03-23T10:34:34;13.50;1.00
8664;DHT22;4369;47.842;13.096;2024-03-23T10:37:03;13.40;1.00
8664;DHT22;4369;47.842;13.096;2024-03-23T10:39:32;13.30;1.00
8664;DHT22;4369;47.842;13.096;2024-03-23T10:42:02;12.90;1.00
8664;DHT22;4369;47.842;13.096;2024-03-23T10:44:29;12.70;65.80
8664;DHT22;4369;47.842;13.096;2024-03-23T10:46:57;12.70;94.20
8664;DHT22;4369;47.842;13.096;2024-03-23T10:49:26;12.50;99.90
8664;DHT22;4369;47.842;13.096;2024-03-23T10:51:58;12.20;99.90
8664;DHT22;4369;47.842;13.096;2024-03-23T10:54:24;12.10;99.90
8664;DHT22;4369;47.842;13.096;2024-03-23T10:56:59;11.90;99.90
8664;DHT22;4369;47.842;13.096;2024-03-23T10:59:29;12.00;99.90
8664;DHT22;4369;47.842;13.096;2024-03-23T11:01:58;11.90;99.90
8664;DHT22;4369;47.842;13.096;2024-03-23T11:04:31;11.80;1.00
8664;DHT22;4369;47.842;13.096;2024-03-23T11:06:58;11.60;1.00
8664;DHT22;4369;47.842;13.096;2024-03-23T11:09:44;11.30;99.90
8664;DHT22;4369;47.842;13.096;2024-03-23T11:12:26;11.20;1.00
8664;DHT22;4369;47.842;13.096;2024-03-23T11:14:56;11.10;99.90
8664;DHT22;4369;47.842;13.096;2024-03-23T11:17:25;11.00;99.90
8664;DHT22;4369;47.842;13.096;2024-03-23T11:19:55;11.00;99.90
8664;DHT22;4369;47.842;13.096;2024-03-23T11:22:40;10.70;1.00
8664;DHT22;4369;47.842;13.096;2024-03-23T11:25:14;10.40;31.20
8664;DHT22;4369;47.842;13.096;2024-03-23T11:27:42;10.40;99.90
8664;DHT22;4369;47.842;13.096;2024-03-23T11:30:17;10.40;99.90
8664;DHT22;4369;47.842;13.096;2024-03-23T11:32:45;10.30;99.90
8664;DHT22;4369;47.842;13.096;2024-03-23T11:35:25;10.20;1.00
8664;DHT22;4369;47.842;13.096;2024-03-23T11:38:09;10.10;99.90
8664;DHT22;4369;47.842;13.096;2024-03-23T11:40:36;10.20;1.00
8664;DHT22;4369;47.842;13.096;2024-03-23T11:43:04;10.10;99.90
8664;DHT22;4369;47.842;13.096;2024-03-23T11:45:36;10.00;1.00
8664;DHT22;4369;47.842;13.096;2024-03-23T11:48:07;10.00;1.00
8664;DHT22;4369;47.842;13.096;2024-03-23T11:50:35;10.00;1.00
8664;DHT22;4369;47.842;13.096;2024-03-23T11:53:12;9.80;1.00
8664;DHT22;4369;47.842;13.096;2024-03-23T11:55:48;10.00;1.00
8664;DHT22;4369;47.842;13.096;2024-03-23T11:58:17;9.90;1.00
8664;DHT22;4369;47.842;13.096;2024-03-23T12:00:49;9.70;28.30
8664;DHT22;4369;47.842;13.096;2024-03-23T12:03:18;9.40;99.90
8664;DHT22;4369;47.842;13.096;2024-03-23T12:05:48;9.10;99.90
8664;DHT22;4369;47.842;13.096;2024-03-23T12:08:20;9.00;99.90
8664;DHT22;4369;47.842;13.096;2024-03-23T12:10:49;9.00;99.90
8664;DHT22;4369;47.842;13.096;2024-03-23T12:13:17;9.00;99.90
8664;DHT22;4369;47.842;13.096;2024-03-23T12:15:45;8.70;99.90
8664;DHT22;4369;47.842;13.096;2024-03-23T12:18:13;8.50;99.90
8664;DHT22;4369;47.842;13.096;2024-03-23T12:20:39;8.30;99.90
8664;DHT22;4369;47.842;13.096;2024-03-23T12:23:11;8.40;99.90
8664;DHT22;4369;47.842;13.096;2024-03-23T12:25:37;8.40;99.90
8664;DHT22;4369;47.842;13.096;2024-03-23T12:28:05;8.50;99.90
8664;DHT22;4369;47.842;13.096;2024-03-23T12:30:35;8.50;99.90
8664;DHT22;4369;47.842;13.096;2024-03-23T12:33:04;8.50;99.90
8664;DHT22;4369;47.842;13.096;2024-03-23T12:35:31;8.50;99.90
8664;DHT22;4369;47.842;13.096;2024-03-23T12:37:58;8.50;99.90
8664;DHT22;4369;47.842;13.096;2024-03-23T12:40:24;8.50;99.90
8664;DHT22;4369;47.842;13.096;2024-03-23T12:42:52;8.50;99.90
8664;DHT22;4369;47.842;13.096;2024-03-23T12:45:18;8.30;99.90
8664;DHT22;4369;47.842;13.096;2024-03-23T12:47:45;8.00;99.90
8664;DHT22;4369;47.842;13.096;2024-03-23T12:50:12;7.80;99.90
8664;DHT22;4369;47.842;13.096;2024-03-23T12:52:39;7.50;99.90
8664;DHT22;4369;47.842;13.096;2024-03-23T12:55:06;7.40;99.90
8664;DHT22;4369;47.842;13.096;2024-03-23T12:57:33;7.50;99.90
8664;DHT22;4369;47.842;13.096;2024-03-23T12:59:59;7.30;99.90
8664;DHT22;4369;47.842;13.096;2024-03-23T13:02:26;7.20;99.90
8664;DHT22;4369;47.842;13.096;2024-03-23T13:04:53;7.10;99.90
8664;DHT22;4369;47.842;13.096;2024-03-23T13:07:22;7.00;99.90
8664;DHT22;4369;47.842;13.096;2024-03-23T13:09:50;7.00;99.90
8664;DHT22;4369;47.842;13.096;2024-03-23T13:12:18;7.00;99.90
8664;DHT22;4369;47.842;13.096;2024-03-23T13:14:44;7.00;99.90
8664;DHT22;4369;47.842;13.096;2024-03-23T13:17:11;6.80;99.90
8664;DHT22;4369;47.842;13.096;2024-03-23T13:19:37;6.80;99.90
8664;DHT22;4369;47.842;13.096;2024-03-23T13:22:05;6.80;99.90
8664;DHT22;4369;47.842;13.096;2024-03-23T13:24:32;6.80;99.90
8664;DHT22;4369;47.842;13.096;2024-03-23T13:26:59;6.70;99.90
8664;DHT22;4369;47.842;13.096;2024-03-23T13:29:25;6.60;99.90
8664;DHT22;4369;47.842;13.096;2024-03-23T13:31:52;6.60;99.90
8664;DHT22;4369;47.842;13.096;2024-03-23T13:34:19;6.70;99.90
8664;DHT22;4369;47.842;13.096;2024-03-23T13:36:46;6.70;99.90
8664;DHT22;4369;47.842;13.096;2024-03-23T13:39:13;6.70;99.90
8664;DHT22;4369;47.842;13.096;2024-03-23T13:41:44;6.80;99.90
8664;DHT22;4369;47.842;13.096;2024-03-23T13:44:11;6.80;99.90
8664;DHT22;4369;47.842;13.096;2024-03-23T13:46:39;6.70;99.90
8664;DHT22;4369;47.842;13.096;2024-03-23T13:49:05;6.70;99.90
8664;DHT22;4369;47.842;13.096;2024-03-23T13:51:32;6.50;99.90
8664;DHT22;4369;47.842;13.096;2024-03-23T13:53:58;6.60;99.90
8664;DHT22;4369;47.842;13.096;2024-03-23T13:56:26;6.70;99.90
8664;DHT22;4369;47.842;13.096;2024-03-23T13:58:55;6.80;99.90
8664;DHT22;4369;47.842;13.096;2024-03-23T14:01:23;6.80;99.90
8664;DHT22;4369;47.842;13.096;2024-03-23T14:03:50;6.70;99.90
8664;DHT22;4369;47.842;13.096;2024-03-23T14:06:17;6.80;99.90
8664;DHT22;4369;47.842;13.096;2024-03-23T14:08:43;6.70;99.90
8664;DHT22;4369;47.842;13.096;2024-03-23T14:11:10;6.70;99.90
8664;DHT22;4369;47.842;13.096;2024-03-23T14:13:36;6.70;99.90
8664;DHT22;4369;47.842;13.096;2024-03-23T14:16:05;6.80;99.90
8664;DHT22;4369;47.842;13.096;2024-03-23T14:18:31;6.90;99.90
8664;DHT22;4369;47.842;13.096;2024-03-23T14:20:59;6.80;99.90
8664;DHT22;4369;47.842;13.096;2024-03-23T14:23:25;6.80;99.90
8664;DHT22;4369;47.842;13.096;2024-03-23T14:25:53;6.70;99.90
8664;DHT22;4369;47.842;13.096;2024-03-23T14:28:19;6.60;96.20
8664;DHT22;4369;47.842;13.096;2024-03-23T14:30:48;6.60;99.90
8664;DHT22;4369;47.842;13.096;2024-03-23T14:33:16;6.60;99.90
8664;DHT22;4369;47.842;13.096;2024-03-23T14:35:51;6.70;99.90
8664;DHT22;4369;47.842;13.096;2024-03-23T14:38:17;6.80;99.90
8664;DHT22;4369;47.842;13.096;2024-03-23T14:40:44;6.90;99.90
8664;DHT22;4369;47.842;13.096;2024-03-23T14:43:10;6.90;99.90
8664;DHT22;4369;47.842;13.096;2024-03-23T14:45:37;6.90;99.90
8664;DHT22;4369;47.842;13.096;2024-03-23T14:48:03;6.80;99.90
8664;DHT22;4369;47.842;13.096;2024-03-23T14:50:32;6.70;99.90
8664;DHT22;4369;47.842;13.096;2024-03-23T14:53:00;6.80;99.90
8664;DHT22;4369;47.842;13.096;2024-03-23T14:55:27;6.80;99.90
8664;DHT22;4369;47.842;13.096;2024-03-23T14:57:54;6.70;57.70
8664;DHT22;4369;47.842;13.096;2024-03-23T15:00:21;6.80;49.40
8664;DHT22;4369;47.842;13.096;2024-03-23T15:02:47;6.80;59.70
8664;DHT22;4369;47.842;13.096;2024-03-23T15:05:15;6.80;80.70
8664;DHT22;4369;47.842;13.096;2024-03-23T15:07:42;6.70;70.40
8664;DHT22;4369;47.842;13.096;2024-03-23T15:10:09;6.70;41.60
8664;DHT22;4369;47.842;13.096;2024-03-23T15:12:35;6.70;51.50
8664;DHT22;4369;47.842;13.096;2024-03-23T15:15:03;6.60;62.20
8664;DHT22;4369;47.842;13.096;2024-03-23T15:17:29;6.50;61.80
8664;DHT22;4369;47.842;13.096;2024-03-23T15:20:00;6.50;37.00
8664;DHT22;4369;47.842;13.096;2024-03-23T15:22:26;6.50;25.00
8664;DHT22;4369;47.842;13.096;2024-03-23T15:24:54;6.40;11.30
8664;DHT22;4369;47.842;13.096;2024-03-23T15:27:20;6.50;27.90
8664;DHT22;4369;47.842;13.096;2024-03-23T15:29:47;6.50;23.00
8664;DHT22;4369;47.842;13.096;2024-03-23T15:32:13;6.50;18.80
8664;DHT22;4369;47.842;13.096;2024-03-23T15:34:43;6.40;10.00
8664;DHT22;4369;47.842;13.096;2024-03-23T15:37:09;6.40;11.30
8664;DHT22;4369;47.842;13.096;2024-03-23T15:39:35;6.40;14.30
8664;DHT22;4369;47.842;13.096;2024-03-23T15:42:03;6.50;19.90
8664;DHT22;4369;47.842;13.096;2024-03-23T15:44:31;6.50;19.00
8664;DHT22;4369;47.842;13.096;2024-03-23T15:46:57;6.50;20.30
8664;DHT22;4369;47.842;13.096;2024-03-23T15:49:24;6.50;12.40
8664;DHT22;4369;47.842;13.096;2024-03-23T15:51:50;6.40;5.60
8664;DHT22;4369;47.842;13.096;2024-03-23T15:54:17;6.50;27.70
8664;DHT22;4369;47.842;13.096;2024-03-23T15:56:43;6.60;42.80
8664;DHT22;4369;47.842;13.096;2024-03-23T15:59:12;6.60;28.40
8664;DHT22;4369;47.842;13.096;2024-03-23T16:01:38;6.40;74.00
8664;DHT22;4369;47.842;13.096;2024-03-23T16:04:05;6.50;83.70
8664;DHT22;4369;47.842;13.096;2024-03-23T16:06:31;6.50;77.10
8664;DHT22;4369;47.842;13.096;2024-03-23T16:08:58;6.60;99.90
8664;DHT22;4369;47.842;13.096;2024-03-23T16:11:24;6.50;99.90
8664;DHT22;4369;47.842;13.096;2024-03-23T16:13:51;6.60;99.90
8664;DHT22;4369;47.842;13.096;2024-03-23T16:16:18;6.60;99.90
8664;DHT22;4369;47.842;13.096;2024-03-23T16:18:48;6.60;99.90
8664;DHT22;4369;47.842;13.096;2024-03-23T16:21:14;6.50;99.90
8664;DHT22;4369;47.842;13.096;2024-03-23T16:23:42;6.40;99.90
8664;DHT22;4369;47.842;13.096;2024-03-23T16:26:10;6.30;99.90
8664;DHT22;4369;47.842;13.096;2024-03-23T16:28:38;6.10;99.90
8664;DHT22;4369;47.842;13.096;2024-03-23T16:31:07;6.10;99.90
8664;DHT22;4369;47.842;13.096;2024-03-23T16:33:37;6.00;99.90
8664;DHT22;4369;47.842;13.096;2024-03-23T16:36:04;5.90;99.90
8664;DHT22;4369;47.842;13.096;2024-03-23T16:38:33;5.70;99.90
8664;DHT22;4369;47.842;13.096;2024-03-23T16:41:01;5.60;99.90
8664;DHT22;4369;47.842;13.096;2024-03-23T16:43:30;5.40;99.90
8664;DHT22;4369;47.842;13.096;2024-03-23T16:45:57;5.40;99.90
8664;DHT22;4369;47.842;13.096;2024-03-23T16:48:25;5.10;99.90
8664;DHT22;4369;47.842;13.096;2024-03-23T16:50:55;5.00;99.90
8664;DHT22;4369;47.842;13.096;2024-03-23T16:53:23;5.10;99.90
8664;DHT22;4369;47.842;13.096;2024-03-23T16:55:54;5.00;99.90
8664;DHT22;4369;47.842;13.096;2024-03-23T16:58:23;5.00;99.90
8664;DHT22;4369;47.842;13.096;2024-03-23T17:00:49;5.00;99.90
8664;DHT22;4369;47.842;13.096;2024-03-23T17:03:18;5.00;99.90